createdAt,value
2023-03-06T00:00:58.273Z,26.77
2023-03-06T00:03:27.841Z,27.67
2023-03-06T00:05:57.269Z,27.90
2023-03-06T00:08:25.802Z,24.27
2023-03-06T00:10:52.835Z,26.42
2023-03-06T00:13:20.023Z,23.70
2023-03-06T00:15:48.221Z,30.63
2023-03-06T00:18:15.314Z,24.67
2023-03-06T00:20:43.823Z,24.33
2023-03-06T00:23:11.109Z,29.67
2023-03-06T00:25:41.612Z,27.67
2023-03-06T00:28:08.397Z,33.55
2023-03-06T00:30:35.369Z,22.00
2023-03-06T00:33:02.136Z,25.20
2023-03-06T00:35:28.914Z,26.70
2023-03-06T00:37:57.717Z,25.30
2023-03-06T00:40:24.429Z,23.45
2023-03-06T00:42:51.298Z,24.88
2023-03-06T00:45:18.132Z,25.60
2023-03-06T00:47:44.921Z,23.10
2023-03-06T00:50:12.171Z,24.73
2023-03-06T00:52:39.227Z,27.27
2023-03-06T00:55:06.524Z,27.73
2023-03-06T00:57:33.361Z,26.50
2023-03-06T01:00:00.093Z,33.08
2023-03-06T01:02:26.864Z,27.88
2023-03-06T01:04:53.726Z,28.67
2023-03-06T01:07:20.462Z,25.70
2023-03-06T01:09:47.257Z,38.20
2023-03-06T01:12:14.075Z,28.13
2023-03-06T01:14:40.812Z,30.80
2023-03-06T01:17:07.726Z,26.70
2023-03-06T01:19:34.505Z,21.05
2023-03-06T01:22:01.278Z,28.23
2023-03-06T01:24:28.586Z,27.30
2023-03-06T01:26:55.284Z,26.23
2023-03-06T01:29:22.011Z,29.70
2023-03-06T01:31:48.838Z,25.98
2023-03-06T01:34:15.618Z,30.40
2023-03-06T01:36:42.382Z,24.80
2023-03-06T01:39:10.073Z,23.85
2023-03-06T01:41:36.819Z,27.70
2023-03-06T01:44:03.821Z,27.33
2023-03-06T01:46:42.462Z,36.15
2023-03-06T01:49:22.248Z,25.00
2023-03-06T01:52:00.551Z,24.58
2023-03-06T01:54:35.285Z,25.67
2023-03-06T01:57:13.685Z,25.25
2023-03-06T01:59:42.515Z,30.55
2023-03-06T02:02:11.080Z,26.25
2023-03-06T02:04:40.421Z,31.05
2023-03-06T02:07:08.651Z,26.83
2023-03-06T02:09:36.698Z,26.42
2023-03-06T02:12:08.764Z,33.22
2023-03-06T02:14:35.836Z,21.25
2023-03-06T02:17:03.337Z,28.58
2023-03-06T02:19:43.723Z,26.60
2023-03-06T02:22:10.701Z,23.40
2023-03-06T02:24:54.917Z,28.08
2023-03-06T02:27:24.094Z,28.08
2023-03-06T02:29:50.840Z,27.67
2023-03-06T02:32:17.681Z,21.65
2023-03-06T02:34:56.448Z,29.77
2023-03-06T02:37:24.852Z,24.67
2023-03-06T02:40:02.925Z,22.02
2023-03-06T02:42:29.833Z,24.02
2023-03-06T02:44:58.964Z,23.92
2023-03-06T02:47:25.813Z,30.23
2023-03-06T02:49:52.554Z,32.55
2023-03-06T02:52:19.447Z,20.45
2023-03-06T02:54:46.296Z,27.20
2023-03-06T02:57:13.056Z,29.10
2023-03-06T02:59:39.786Z,28.13
2023-03-06T03:02:06.876Z,26.38
2023-03-06T03:04:33.839Z,27.25
2023-03-06T03:07:00.627Z,23.83
2023-03-06T03:09:28.298Z,26.13
2023-03-06T03:11:55.086Z,28.27
2023-03-06T03:14:21.830Z,27.98
2023-03-06T03:16:48.582Z,27.60
2023-03-06T03:19:15.256Z,27.67
2023-03-06T03:21:42.061Z,25.25
2023-03-06T03:24:09.091Z,26.73
2023-03-06T03:26:36.007Z,29.90
2023-03-06T03:29:05.003Z,26.02
2023-03-06T03:31:32.805Z,22.20
2023-03-06T03:34:00.180Z,26.73
2023-03-06T03:36:27.543Z,28.42
2023-03-06T03:38:54.878Z,29.58
2023-03-06T03:41:21.666Z,27.92
2023-03-06T03:43:48.417Z,23.55
2023-03-06T03:46:15.277Z,25.60
2023-03-06T03:48:42.032Z,24.35
2023-03-06T03:51:11.056Z,26.73
2023-03-06T03:53:37.847Z,28.30
2023-03-06T03:56:05.387Z,26.05
2023-03-06T03:58:32.113Z,23.05
2023-03-06T04:00:58.853Z,26.15
2023-03-06T04:03:25.592Z,27.88
2023-03-06T04:05:54.426Z,26.13
2023-03-06T04:08:25.279Z,29.17
2023-03-06T04:10:53.051Z,28.80
2023-03-06T04:13:22.234Z,29.33
2023-03-06T04:15:50.203Z,25.55
2023-03-06T04:18:17.411Z,32.42
2023-03-06T04:20:45.730Z,30.48
2023-03-06T04:23:12.809Z,37.20
2023-03-06T04:25:39.924Z,29.13
2023-03-06T04:28:07.421Z,26.23
2023-03-06T04:30:34.717Z,33.08
2023-03-06T04:33:01.402Z,27.08
2023-03-06T04:35:28.172Z,25.17
2023-03-06T04:37:55.489Z,26.25
2023-03-06T04:40:27.380Z,26.70
2023-03-06T04:42:55.587Z,27.13
2023-03-06T04:45:22.785Z,23.15
2023-03-06T04:47:49.749Z,28.58
2023-03-06T04:50:17.401Z,25.13
2023-03-06T04:52:44.283Z,27.60
2023-03-06T04:55:14.250Z,30.67
2023-03-06T04:57:43.278Z,29.00
2023-03-06T05:00:18.180Z,35.92
2023-03-06T05:02:45.983Z,35.00
2023-03-06T05:05:13.414Z,30.50
2023-03-06T05:07:40.685Z,25.52
2023-03-06T05:10:10.522Z,31.25
2023-03-06T05:12:37.956Z,25.17
2023-03-06T05:15:05.477Z,30.65
2023-03-06T05:17:32.256Z,27.27
2023-03-06T05:19:59.079Z,29.95
2023-03-06T05:22:25.808Z,30.13
2023-03-06T05:24:52.654Z,29.70
2023-03-06T05:27:19.428Z,28.65
2023-03-06T05:29:46.156Z,30.13
2023-03-06T05:32:12.930Z,30.30
2023-03-06T05:34:40.102Z,34.97
2023-03-06T05:37:06.871Z,30.67
2023-03-06T05:39:33.603Z,31.65
2023-03-06T05:42:00.651Z,31.67
2023-03-06T05:44:32.408Z,31.73
2023-03-06T05:46:59.863Z,34.22
2023-03-06T05:49:31.338Z,33.90
2023-03-06T05:51:58.421Z,30.75
2023-03-06T05:54:26.232Z,32.05
2023-03-06T05:56:52.995Z,39.10
2023-03-06T05:59:19.782Z,35.60
2023-03-06T06:01:46.512Z,32.42
2023-03-06T06:04:13.216Z,31.10
2023-03-06T06:06:39.996Z,34.75
2023-03-06T06:09:06.714Z,28.73
2023-03-06T06:11:33.409Z,34.78
2023-03-06T06:14:00.209Z,34.83
2023-03-06T06:16:26.997Z,34.13
2023-03-06T06:18:53.757Z,28.33
2023-03-06T06:21:20.479Z,36.40
2023-03-06T06:23:47.160Z,33.35
2023-03-06T06:26:13.928Z,32.97
2023-03-06T06:28:40.692Z,37.67
2023-03-06T06:31:12.302Z,34.67
2023-03-06T06:33:39.932Z,35.95
2023-03-06T06:36:20.748Z,37.40
2023-03-06T06:38:47.861Z,32.08
2023-03-06T06:44:08.542Z,35.88
2023-03-06T06:49:22.976Z,36.45
2023-03-06T06:51:49.788Z,34.58
2023-03-06T06:54:16.504Z,40.80
2023-03-06T06:56:43.299Z,40.53
2023-03-06T06:59:16.439Z,36.42
2023-03-06T07:01:44.188Z,34.95
2023-03-06T07:04:14.404Z,37.85
2023-03-06T07:06:42.126Z,41.80
2023-03-06T07:09:09.166Z,45.28
2023-03-06T07:11:38.387Z,37.75
2023-03-06T07:14:05.587Z,33.53
2023-03-06T07:16:32.256Z,32.15
2023-03-06T07:19:01.430Z,35.03
2023-03-06T07:21:28.249Z,30.08
2023-03-06T07:23:57.269Z,36.33
2023-03-06T07:26:25.494Z,34.90
2023-03-06T07:28:53.663Z,35.70
2023-03-06T07:31:22.659Z,36.38
2023-03-06T07:33:50.873Z,29.90
2023-03-06T07:36:18.064Z,35.92
2023-03-06T07:38:45.430Z,30.00
2023-03-06T07:41:13.845Z,32.67
2023-03-06T07:43:41.422Z,31.48
2023-03-06T07:46:09.061Z,33.25
2023-03-06T07:48:37.417Z,32.47
2023-03-06T07:51:06.976Z,30.95
2023-03-06T07:53:34.165Z,43.35
2023-03-06T07:56:01.230Z,35.45
2023-03-06T07:58:28.024Z,32.88
2023-03-06T08:00:54.816Z,31.95
2023-03-06T08:03:21.552Z,33.05
2023-03-06T08:05:48.253Z,28.25
2023-03-06T08:08:15.073Z,32.47
2023-03-06T08:10:46.815Z,34.58
2023-03-06T08:13:13.508Z,26.52
2023-03-06T08:15:40.316Z,28.50
2023-03-06T08:18:07.032Z,31.52
2023-03-06T08:20:33.740Z,27.98
2023-03-06T08:23:00.532Z,26.02
2023-03-06T08:25:27.272Z,25.42
2023-03-06T08:27:54.150Z,25.42
2023-03-06T08:30:21.633Z,22.48
2023-03-06T08:32:48.443Z,27.13
2023-03-06T08:35:15.221Z,20.38
2023-03-06T08:37:42.040Z,20.70
2023-03-06T08:40:09.586Z,23.88
2023-03-06T08:42:36.276Z,30.27
2023-03-06T08:45:03.254Z,24.30
2023-03-06T08:47:29.941Z,32.00
2023-03-06T08:49:57.173Z,27.90
2023-03-06T08:52:24.958Z,23.00
2023-03-06T08:54:51.629Z,26.73
2023-03-06T08:57:18.463Z,22.20
2023-03-06T08:59:45.178Z,18.50
2023-03-06T09:02:15.103Z,19.70
2023-03-06T09:04:42.024Z,17.83
2023-03-06T09:07:08.835Z,20.52
2023-03-06T09:09:35.562Z,21.08
2023-03-06T09:12:02.486Z,20.13
2023-03-06T09:14:29.396Z,19.17
2023-03-06T09:16:56.163Z,19.42
2023-03-06T09:19:22.963Z,18.42
2023-03-06T09:21:49.761Z,16.80
2023-03-06T09:24:16.520Z,16.77
2023-03-06T09:26:46.448Z,19.38
2023-03-06T09:29:16.341Z,15.13
2023-03-06T09:31:43.621Z,16.05
2023-03-06T09:34:10.495Z,46.00
2023-03-06T09:36:49.521Z,15.82
2023-03-06T09:39:22.039Z,12.10
2023-03-06T09:41:50.785Z,18.42
2023-03-06T09:44:22.467Z,17.58
2023-03-06T09:47:19.982Z,20.42
2023-03-06T09:49:52.487Z,14.48
2023-03-06T09:52:43.851Z,13.55
2023-03-06T09:55:18.373Z,17.92
2023-03-06T09:58:14.023Z,12.77
2023-03-06T10:00:43.866Z,11.77
2023-03-06T10:03:33.034Z,17.98
2023-03-06T10:06:05.368Z,14.75
2023-03-06T10:09:00.641Z,12.20
2023-03-06T10:12:04.846Z,15.65
2023-03-06T10:14:49.181Z,13.00
2023-03-06T10:17:22.194Z,11.18
2023-03-06T10:19:49.795Z,13.48
2023-03-06T10:23:00.549Z,12.35
2023-03-06T10:25:37.948Z,17.98
2023-03-06T10:28:20.479Z,13.00
2023-03-06T10:31:27.876Z,14.55
2023-03-06T10:33:57.987Z,11.60
2023-03-06T10:36:29.722Z,14.38
2023-03-06T10:38:58.842Z,12.35
2023-03-06T10:41:35.181Z,12.50
2023-03-06T10:44:04.953Z,12.18
2023-03-06T10:46:37.211Z,12.77
2023-03-06T10:49:30.135Z,12.18
2023-03-06T10:52:14.744Z,16.00
2023-03-06T10:54:44.396Z,13.02
2023-03-06T10:57:29.712Z,13.23
2023-03-06T11:00:06.686Z,14.50
2023-03-06T11:02:37.201Z,10.13
2023-03-06T11:05:05.424Z,13.45
2023-03-06T11:07:36.896Z,18.50
2023-03-06T11:10:20.151Z,12.52
2023-03-06T11:13:21.266Z,15.20
2023-03-06T11:16:21.095Z,12.82
2023-03-06T11:19:01.318Z,13.18
2023-03-06T11:21:37.125Z,16.25
2023-03-06T11:24:19.894Z,16.00
2023-03-06T11:26:57.457Z,13.70
2023-03-06T11:29:38.677Z,12.38
2023-03-06T11:32:23.010Z,15.35
2023-03-06T11:34:56.652Z,14.70
2023-03-06T11:37:32.635Z,14.48
2023-03-06T11:40:11.225Z,20.67
2023-03-06T11:42:51.514Z,15.85
2023-03-06T11:45:34.714Z,16.73
2023-03-06T11:48:23.160Z,21.35
2023-03-06T11:50:52.736Z,23.27
2023-03-06T11:53:23.152Z,18.45
2023-03-06T11:55:55.019Z,20.42
2023-03-06T11:58:58.762Z,24.15
2023-03-06T12:01:37.318Z,20.75
2023-03-06T12:04:29.744Z,21.05
2023-03-06T12:06:59.447Z,22.17
2023-03-06T12:09:30.632Z,15.65
2023-03-06T12:12:29.059Z,21.75
2023-03-06T12:14:55.728Z,18.70
2023-03-06T12:17:58.291Z,22.65
2023-03-06T12:20:39.720Z,16.05
2023-03-06T12:23:43.756Z,21.25
2023-03-06T12:26:31.478Z,15.00
2023-03-06T12:29:28.539Z,24.38
2023-03-06T12:32:14.153Z,21.40
2023-03-06T12:34:58.749Z,20.88
2023-03-06T12:37:38.026Z,19.00
2023-03-06T12:40:16.782Z,20.73
2023-03-06T12:42:55.870Z,20.77
2023-03-06T12:45:38.438Z,18.10
2023-03-06T12:48:14.814Z,19.92
2023-03-06T12:50:44.491Z,18.52
2023-03-06T12:53:23.290Z,16.98
2023-03-06T12:55:51.431Z,16.92
2023-03-06T12:58:30.237Z,23.88
2023-03-06T13:01:09.553Z,16.98
2023-03-06T13:03:39.207Z,18.83
2023-03-06T13:06:20.734Z,20.55
2023-03-06T13:09:05.881Z,13.13
2023-03-06T13:12:15.387Z,21.60
2023-03-06T13:14:48.635Z,16.80
2023-03-06T13:17:27.948Z,15.35
2023-03-06T13:20:13.719Z,17.17
2023-03-06T13:22:45.195Z,15.02
2023-03-06T13:25:20.654Z,13.85
2023-03-06T13:27:53.425Z,17.58
2023-03-06T13:30:44.371Z,12.57
2023-03-06T13:33:33.007Z,16.77
2023-03-06T13:36:19.784Z,14.30
2023-03-06T13:38:49.613Z,13.02
2023-03-06T13:41:30.967Z,10.68
2023-03-06T13:44:25.629Z,13.68
2023-03-06T13:47:05.818Z,12.48
2023-03-06T13:49:34.053Z,12.40
2023-03-06T13:52:10.499Z,12.90
2023-03-06T13:54:49.087Z,13.55
2023-03-06T13:58:04.021Z,13.73
2023-03-06T14:00:57.528Z,12.90
2023-03-06T14:03:51.093Z,12.82
2023-03-06T14:06:37.145Z,15.30
2023-03-06T14:09:15.713Z,16.10
2023-03-06T14:11:50.452Z,13.50
2023-03-06T14:14:17.956Z,18.50
2023-03-06T14:16:50.842Z,11.40
2023-03-06T14:19:19.506Z,11.05
2023-03-06T14:21:51.060Z,13.18
2023-03-06T14:24:20.156Z,11.57
2023-03-06T14:26:50.052Z,11.02
2023-03-06T14:29:21.181Z,17.52
2023-03-06T14:31:51.218Z,11.27
2023-03-06T14:34:29.640Z,17.45
2023-03-06T14:37:01.424Z,10.65
2023-03-06T14:39:40.159Z,17.58
2023-03-06T14:42:09.147Z,14.73
2023-03-06T14:44:35.939Z,13.90
2023-03-06T14:47:22.042Z,15.38
2023-03-06T14:50:08.772Z,12.10
2023-03-06T14:52:36.347Z,14.68
2023-03-06T14:55:03.278Z,15.27
2023-03-06T14:57:30.133Z,12.68
2023-03-06T14:59:59.016Z,15.52
2023-03-06T15:02:32.865Z,18.45
2023-03-06T15:05:11.189Z,15.05
2023-03-06T15:07:38.196Z,11.73
2023-03-06T15:10:10.370Z,15.30
2023-03-06T15:12:38.935Z,17.20
2023-03-06T15:15:10.367Z,13.20
2023-03-06T15:17:48.008Z,13.43
2023-03-06T15:20:41.465Z,17.63
2023-03-06T15:23:22.378Z,12.90
2023-03-06T15:26:00.445Z,20.63
2023-03-06T15:28:38.620Z,16.80
2023-03-06T15:31:11.189Z,14.02
2023-03-06T15:33:38.222Z,14.65
2023-03-06T15:36:06.817Z,16.15
2023-03-06T15:38:39.342Z,15.43
2023-03-06T15:41:19.519Z,19.95
2023-03-06T15:43:46.319Z,15.00
2023-03-06T15:46:13.694Z,16.80
2023-03-06T15:48:50.852Z,15.00
2023-03-06T15:51:17.601Z,17.73
2023-03-06T15:53:44.345Z,15.80
2023-03-06T15:56:12.395Z,14.00
2023-03-06T15:58:40.319Z,16.75
2023-03-06T16:01:08.103Z,17.17
2023-03-06T16:03:34.888Z,16.58
2023-03-06T16:06:01.569Z,17.95
2023-03-06T16:08:28.855Z,17.67
2023-03-06T16:10:55.555Z,15.63
2023-03-06T16:13:27.806Z,16.55
2023-03-06T16:15:54.881Z,16.88
2023-03-06T16:18:21.653Z,18.05
2023-03-06T16:20:49.269Z,14.90
2023-03-06T16:23:16.469Z,15.13
2023-03-06T16:25:48.507Z,14.43
2023-03-06T16:28:16.485Z,15.07
2023-03-06T16:30:44.519Z,13.43
2023-03-06T16:33:12.573Z,22.02
2023-03-06T16:35:39.810Z,18.98
2023-03-06T16:38:06.929Z,21.15
2023-03-06T16:40:38.365Z,17.20
2023-03-06T16:43:05.633Z,23.88
2023-03-06T16:45:37.080Z,13.88
2023-03-06T16:48:04.270Z,14.63
2023-03-06T16:50:36.242Z,14.73
2023-03-06T16:53:04.086Z,16.98
2023-03-06T16:55:30.941Z,16.73
2023-03-06T16:57:57.692Z,19.08
2023-03-06T17:00:25.132Z,21.15
2023-03-06T17:02:52.749Z,65.88
2023-03-06T17:05:20.135Z,63.65
2023-03-06T17:07:47.302Z,34.72
2023-03-06T17:10:16.388Z,32.58
2023-03-06T17:12:43.642Z,25.15
2023-03-06T17:15:11.672Z,20.13
2023-03-06T17:17:38.466Z,19.90
2023-03-06T17:20:07.523Z,17.67
2023-03-06T17:22:35.541Z,16.23
2023-03-06T17:25:05.156Z,15.40
2023-03-06T17:27:32.201Z,14.85
2023-03-06T17:29:59.574Z,15.90
2023-03-06T17:32:27.477Z,21.10
2023-03-06T17:34:54.691Z,20.08
2023-03-06T17:37:21.526Z,21.80
2023-03-06T17:39:48.295Z,23.15
2023-03-06T17:42:15.535Z,20.50
2023-03-06T17:44:42.307Z,22.40
2023-03-06T17:47:09.050Z,20.00
2023-03-06T17:49:35.825Z,22.27
2023-03-06T17:52:06.051Z,23.58
2023-03-06T17:54:33.308Z,30.00
2023-03-06T17:57:03.241Z,18.55
2023-03-06T17:59:31.969Z,16.45
2023-03-06T18:01:59.784Z,12.77
2023-03-06T18:04:27.337Z,43.45
2023-03-06T18:06:54.127Z,17.73
2023-03-06T18:09:20.890Z,23.17
2023-03-06T18:11:47.687Z,31.23
2023-03-06T18:14:14.505Z,20.10
2023-03-06T18:16:41.499Z,17.88
2023-03-06T18:19:11.157Z,19.35
2023-03-06T18:21:39.193Z,18.20
2023-03-06T18:24:06.341Z,19.02
2023-03-06T18:26:33.153Z,15.75
2023-03-06T18:29:03.668Z,24.80
2023-03-06T18:31:34.666Z,17.13
2023-03-06T18:34:05.075Z,19.58
2023-03-06T18:36:33.174Z,16.27
2023-03-06T18:39:03.588Z,20.92
2023-03-06T18:41:31.533Z,17.50
2023-03-06T18:44:00.713Z,20.45
2023-03-06T18:46:32.699Z,17.98
2023-03-06T18:48:59.889Z,15.57
2023-03-06T18:51:26.848Z,22.85
2023-03-06T18:53:55.951Z,21.25
2023-03-06T18:56:23.034Z,15.35
2023-03-06T18:58:53.457Z,16.88
2023-03-06T19:01:20.960Z,17.13
2023-03-06T19:03:48.193Z,18.15
2023-03-06T19:06:16.974Z,18.70
2023-03-06T19:08:43.925Z,24.77
2023-03-06T19:11:15.862Z,20.63
2023-03-06T19:13:43.462Z,24.85
2023-03-06T19:16:20.427Z,22.77
2023-03-06T19:18:47.245Z,22.17
2023-03-06T19:21:19.841Z,36.42
2023-03-06T19:23:46.968Z,21.00
2023-03-06T19:26:14.342Z,19.17
2023-03-06T19:28:42.547Z,17.73
2023-03-06T19:31:19.574Z,26.67
2023-03-06T19:33:48.185Z,24.00
2023-03-06T19:36:16.265Z,21.90
2023-03-06T19:38:43.211Z,24.40
2023-03-06T19:41:13.837Z,22.63
2023-03-06T19:43:41.972Z,23.40
2023-03-06T19:46:15.029Z,24.00
2023-03-06T19:48:42.204Z,23.83
2023-03-06T19:51:09.409Z,29.85
2023-03-06T19:53:36.372Z,22.15
2023-03-06T19:56:12.205Z,23.60
2023-03-06T19:58:40.665Z,24.23
2023-03-06T20:01:10.752Z,25.48
2023-03-06T20:03:37.774Z,25.67
2023-03-06T20:06:09.259Z,26.80
2023-03-06T20:08:36.745Z,22.50
2023-03-06T20:11:04.195Z,20.55
2023-03-06T20:13:31.689Z,29.30
2023-03-06T20:16:03.170Z,21.70
2023-03-06T20:18:29.971Z,22.63
2023-03-06T20:20:58.663Z,17.65
2023-03-06T20:23:25.941Z,17.77
2023-03-06T20:25:53.033Z,20.60
2023-03-06T20:28:19.827Z,18.48
2023-03-06T20:30:46.608Z,18.80
2023-03-06T20:33:15.184Z,24.10
2023-03-06T20:35:42.837Z,29.98
2023-03-06T20:38:10.488Z,23.20
2023-03-06T20:40:39.095Z,24.65
2023-03-06T20:43:05.913Z,41.65
2023-03-06T20:45:32.773Z,31.60
2023-03-06T20:47:59.722Z,27.02
2023-03-06T20:50:27.048Z,40.15
2023-03-06T20:52:55.591Z,60.95
2023-03-06T20:55:22.772Z,36.15
2023-03-06T20:57:51.267Z,75.90
2023-03-06T21:00:19.192Z,61.03
2023-03-06T21:02:45.896Z,71.82
2023-03-06T21:05:13.001Z,22.30
2023-03-06T21:07:39.788Z,45.83
2023-03-06T21:10:07.352Z,17.27
2023-03-06T21:12:34.030Z,108.18
2023-03-06T21:15:00.868Z,51.75
2023-03-06T21:17:28.215Z,19.25
2023-03-06T21:19:54.903Z,16.02
2023-03-06T21:22:21.616Z,19.13
2023-03-06T21:24:48.339Z,17.70
2023-03-06T21:27:15.126Z,14.55
2023-03-06T21:29:41.851Z,14.52
2023-03-06T21:32:08.599Z,15.90
2023-03-06T21:34:35.364Z,14.57
2023-03-06T21:37:02.076Z,13.50
2023-03-06T21:39:28.835Z,19.85
2023-03-06T21:41:55.571Z,15.15
2023-03-06T21:44:22.450Z,15.18
2023-03-06T21:46:49.162Z,13.90
2023-03-06T21:49:15.915Z,17.83
2023-03-06T21:51:42.614Z,15.88
2023-03-06T21:54:09.729Z,15.88
2023-03-06T21:56:36.495Z,21.38
2023-03-06T21:59:03.180Z,20.75
2023-03-06T22:01:30.309Z,22.23
2023-03-06T22:03:58.455Z,20.08
2023-03-06T22:06:27.003Z,15.07
2023-03-06T22:08:55.902Z,17.40
2023-03-06T22:11:24.144Z,17.80
2023-03-06T22:13:53.222Z,19.80
2023-03-06T22:16:20.857Z,17.08
2023-03-06T22:18:50.040Z,15.77
2023-03-06T22:21:18.657Z,14.30
2023-03-06T22:23:59.209Z,14.38
2023-03-06T22:26:27.874Z,13.93
2023-03-06T22:28:54.954Z,14.02
2023-03-06T22:31:24.307Z,14.38
2023-03-06T22:33:52.463Z,14.15
2023-03-06T22:36:20.392Z,12.57
2023-03-06T22:38:47.968Z,11.98
2023-03-06T22:41:18.346Z,16.27
2023-03-06T22:43:45.133Z,13.60
2023-03-06T22:46:14.861Z,14.10
2023-03-06T22:48:42.282Z,16.50
2023-03-06T22:51:11.869Z,17.88
2023-03-06T22:53:39.022Z,12.68
2023-03-06T22:56:08.068Z,14.13
2023-03-06T22:58:37.257Z,16.42
2023-03-06T23:01:11.960Z,15.98
2023-03-06T23:03:40.652Z,13.10
2023-03-06T23:06:15.139Z,15.52
2023-03-06T23:08:42.505Z,17.20
2023-03-06T23:11:11.982Z,13.07
2023-03-06T23:13:39.050Z,15.52
2023-03-06T23:16:08.448Z,10.43
2023-03-06T23:18:36.833Z,16.45
2023-03-06T23:21:12.649Z,15.35
2023-03-06T23:23:40.132Z,15.60
2023-03-06T23:26:08.631Z,10.82
2023-03-06T23:28:35.792Z,16.63
2023-03-06T23:31:10.736Z,18.90
2023-03-06T23:33:38.775Z,13.90
2023-03-06T23:36:07.604Z,11.95
2023-03-06T23:38:34.705Z,12.70
2023-03-06T23:41:13.138Z,14.68
2023-03-06T23:43:40.281Z,14.95
2023-03-06T23:46:07.790Z,14.27
2023-03-06T23:48:36.510Z,12.35
2023-03-06T23:51:08.280Z,13.20
2023-03-06T23:53:35.617Z,14.10
2023-03-06T23:56:06.056Z,15.93
2023-03-06T23:58:33.178Z,16.35
